Time;durP1;ratioP1;P1;durP2;ratioP2;P2;SDS_P1;SDS_P2;PMS_P1;PMS_P2;Temp;Humidity;BMP_temperature;BMP_pressure;BME280_temperature;BME280_humidity;BME280_pressure;Samples;Min_cycle;Max_cycle;Signal;HPM_P1;HPM_P2
2021/12/01 00:00:17;;;;;;;2.40;1.40;;;3.90;99.90;;;;;;5032472;28;20187;-54
2021/12/01 00:02:42;;;;;;;1.30;1.20;;;3.90;99.90;;;;;;5031147;28;20287;-52
2021/12/01 00:05:09;;;;;;;1.07;1.07;;;3.90;99.90;;;;;;5032971;28;20289;-50
2021/12/01 00:07:36;;;;;;;1.80;1.20;;;3.90;99.90;;;;;;5033164;28;20186;-55
2021/12/01 00:10:07;;;;;;;1.37;1.27;;;3.90;99.90;;;;;;5032818;28;20673;-52
2021/12/01 00:12:33;;;;;;;1.30;1.20;;;3.90;99.90;;;;;;5029432;28;20527;-51
2021/12/01 00:14:59;;;;;;;1.00;1.00;;;3.90;99.90;;;;;;5020331;28;20176;-54
2021/12/01 00:17:25;;;;;;;1.20;1.10;;;4.00;99.90;;;;;;5013525;28;20177;-51
2021/12/01 00:19:51;;;;;;;1.30;1.20;;;3.90;99.90;;;;;;5013209;28;20224;-54
2021/12/01 00:22:17;;;;;;;1.60;1.50;;;4.00;99.90;;;;;;5013183;28;20659;-53
2021/12/01 00:24:42;;;;;;;0.97;0.97;;;4.00;99.90;;;;;;5025795;28;20210;-47
2021/12/01 00:27:08;;;;;;;1.10;1.10;;;4.00;99.90;;;;;;5032833;28;20179;-52
2021/12/01 00:29:34;;;;;;;1.43;1.10;;;4.00;99.90;;;;;;5032577;28;20234;-52
2021/12/01 00:31:59;;;;;;;1.20;1.10;;;4.00;99.90;;;;;;5032091;28;20202;-47
2021/12/01 00:34:26;;;;;;;1.17;1.17;;;4.10;99.90;;;;;;5031550;28;20200;-51
2021/12/01 00:36:51;;;;;;;1.30;1.23;;;4.10;99.90;;;;;;5031512;28;20195;-53
2021/12/01 00:39:17;;;;;;;1.07;0.97;;;4.10;99.90;;;;;;5032354;28;20207;-55
2021/12/01 00:41:43;;;;;;;1.40;1.30;;;4.20;99.90;;;;;;5032304;28;20174;-52
2021/12/01 00:44:10;;;;;;;1.07;1.07;;;4.20;99.90;;;;;;5033099;28;20190;-53
2021/12/01 00:46:53;;;;;;;1.10;1.10;;;4.20;99.90;;;;;;5029362;28;20189;-55
2021/12/01 00:49:18;;;;;;;1.40;1.20;;;4.20;99.90;;;;;;5017387;28;20563;-55
2021/12/01 00:51:44;;;;;;;1.20;1.10;;;4.20;99.90;;;;;;5013013;28;20267;-55
2021/12/01 00:54:10;;;;;;;1.10;1.10;;;4.20;99.90;;;;;;5013057;28;20639;-55
2021/12/01 00:56:35;;;;;;;1.40;1.30;;;4.30;99.90;;;;;;5012752;28;20169;-55
2021/12/01 00:59:01;;;;;;;0.97;0.97;;;4.30;99.90;;;;;;5012764;28;20189;-55
2021/12/01 01:01:27;;;;;;;1.30;1.20;;;4.30;99.90;;;;;;5012827;28;20246;-54
2021/12/01 01:03:52;;;;;;;0.97;0.93;;;4.30;99.90;;;;;;5017722;28;20180;-54
2021/12/01 01:06:18;;;;;;;1.17;1.10;;;4.30;99.90;;;;;;5026134;28;20234;-55
2021/12/01 01:08:45;;;;;;;1.10;1.10;;;4.30;99.90;;;;;;5032033;28;20211;-55
2021/12/01 01:16:22;;;;;;;1.00;1.00;;;4.30;99.90;;;;;;5028723;28;20199;-55
2021/12/01 01:16:43;;;;;;;1.00;1.00;;;4.30;99.90;;;;;;5012738;28;20165;-55
2021/12/01 01:19:14;;;;;;;0.80;0.80;;;4.30;99.90;;;;;;5018008;28;20666;-53
2021/12/01 01:21:47;;;;;;;0.80;0.80;;;4.30;99.90;;;;;;5032221;28;20543;-55
2021/12/01 01:24:13;;;;;;;0.80;0.80;;;4.30;99.90;;;;;;5032342;28;20259;-55
2021/12/01 01:26:39;;;;;;;0.97;0.97;;;4.30;99.90;;;;;;5031895;28;20229;-55
2021/12/01 01:29:06;;;;;;;1.07;1.07;;;4.30;99.90;;;;;;5032198;28;20666;-55
2021/12/01 01:31:32;;;;;;;1.30;0.77;;;4.30;99.90;;;;;;5031930;28;20286;-55
2021/12/01 01:33:58;;;;;;;0.80;0.80;;;4.30;99.90;;;;;;5032263;28;20164;-55
2021/12/01 01:36:25;;;;;;;0.90;0.90;;;4.30;99.90;;;;;;5024902;28;20175;-54
2021/12/01 01:38:50;;;;;;;0.60;0.60;;;4.30;99.90;;;;;;5031854;28;20208;-54
2021/12/01 01:41:17;;;;;;;0.73;0.73;;;4.30;99.90;;;;;;5031938;28;20168;-52
2021/12/01 01:43:46;;;;;;;0.80;0.80;;;4.30;99.90;;;;;;5031970;28;20183;-55
2021/12/01 01:46:13;;;;;;;1.03;0.90;;;4.30;99.90;;;;;;5031573;28;20175;-55
2021/12/01 01:51:34;;;;;;;0.80;0.80;;;4.30;99.90;;;;;;4932202;29;20219;-54
2021/12/01 01:53:59;;;;;;;0.73;0.73;;;4.30;99.90;;;;;;4932528;29;20184;-53
2021/12/01 01:56:26;;;;;;;0.73;0.73;;;4.30;99.90;;;;;;4931833;29;20179;-55
2021/12/01 01:58:52;;;;;;;1.00;1.00;;;4.30;99.90;;;;;;4932405;29;20210;-55
2021/12/01 02:03:54;;;;;;;1.37;0.80;;;4.30;99.90;;;;;;4932317;29;20616;-55
2021/12/01 02:06:23;;;;;;;0.70;0.70;;;4.30;99.90;;;;;;4932052;29;20179;-55
2021/12/01 02:08:51;;;;;;;0.70;0.70;;;4.30;99.90;;;;;;4931028;29;20214;-54
2021/12/01 02:11:17;;;;;;;0.73;0.73;;;4.30;99.90;;;;;;4932225;29;20565;-55
2021/12/01 02:13:44;;;;;;;0.70;0.70;;;4.30;99.90;;;;;;4931987;29;20186;-55
2021/12/01 02:16:10;;;;;;;0.80;0.80;;;4.30;99.90;;;;;;4932037;29;20278;-54
2021/12/01 02:18:37;;;;;;;0.77;0.77;;;4.30;99.90;;;;;;4931962;29;20765;-52
2021/12/01 02:21:16;;;;;;;0.80;0.80;;;4.30;99.90;;;;;;4932002;29;20594;-56
2021/12/01 02:23:48;;;;;;;0.70;0.70;;;4.30;99.90;;;;;;4932233;29;20178;-55
2021/12/01 02:26:16;;;;;;;0.77;0.77;;;4.30;99.90;;;;;;4929054;29;20614;-55
2021/12/01 02:28:45;;;;;;;0.80;0.70;;;4.30;99.90;;;;;;5011403;28;20644;-55
2021/12/01 02:31:11;;;;;;;0.73;0.73;;;4.30;99.90;;;;;;5027601;28;20577;-52
2021/12/01 02:33:37;;;;;;;0.60;0.60;;;4.30;99.90;;;;;;5031130;28;20184;-53
2021/12/01 02:36:05;;;;;;;0.80;0.80;;;4.30;99.90;;;;;;5034842;28;20172;-53
2021/12/01 02:38:32;;;;;;;0.70;0.70;;;4.30;99.90;;;;;;5035213;28;20211;-55
2021/12/01 02:40:57;;;;;;;0.70;0.70;;;4.30;99.90;;;;;;5035229;28;20268;-57
2021/12/01 02:43:24;;;;;;;0.87;0.87;;;4.30;99.90;;;;;;5027553;28;20259;-54
2021/12/01 02:45:54;;;;;;;0.80;0.80;;;4.30;99.90;;;;;;5034596;28;20655;-56
2021/12/01 02:48:22;;;;;;;0.70;0.70;;;4.40;99.90;;;;;;5035075;28;20196;-55
2021/12/01 02:50:48;;;;;;;1.07;1.07;;;4.40;99.90;;;;;;5034997;28;20251;-55
2021/12/01 02:53:14;;;;;;;0.90;0.90;;;4.40;99.90;;;;;;5035277;28;20184;-55
2021/12/01 02:55:48;;;;;;;0.77;0.70;;;4.40;99.90;;;;;;5034659;28;20184;-55
2021/12/01 02:58:17;;;;;;;0.83;0.83;;;4.40;99.90;;;;;;5035006;28;20233;-55
2021/12/01 03:00:43;;;;;;;0.83;0.80;;;4.40;99.90;;;;;;5027350;28;20192;-55
2021/12/01 03:03:10;;;;;;;0.80;0.80;;;4.40;99.90;;;;;;5034977;28;20191;-54
2021/12/01 03:05:36;;;;;;;0.90;0.90;;;4.40;99.90;;;;;;5034494;28;20172;-57
2021/12/01 03:08:03;;;;;;;0.87;0.87;;;4.50;99.90;;;;;;5034669;28;20674;-55
2021/12/01 03:10:28;;;;;;;1.00;1.00;;;4.40;99.90;;;;;;5035024;28;20238;-55
2021/12/01 03:12:55;;;;;;;0.80;0.80;;;4.40;99.90;;;;;;5034584;28;20581;-55
2021/12/01 03:15:21;;;;;;;1.13;1.03;;;4.40;99.90;;;;;;5034328;28;20183;-55
2021/12/01 03:17:46;;;;;;;1.23;1.23;;;4.40;99.90;;;;;;5034609;28;20180;-55
2021/12/01 03:20:14;;;;;;;1.07;1.07;;;4.40;99.90;;;;;;5034487;28;20191;-55
2021/12/01 03:22:41;;;;;;;0.90;0.90;;;4.40;99.90;;;;;;5034529;28;20191;-55
2021/12/01 03:25:12;;;;;;;1.10;1.00;;;4.50;99.90;;;;;;5034304;28;20179;-54
2021/12/01 03:27:38;;;;;;;1.17;1.07;;;4.50;99.90;;;;;;5034254;28;20214;-55
2021/12/01 03:30:06;;;;;;;1.20;1.07;;;4.50;99.90;;;;;;5034391;28;20176;-54
2021/12/01 03:32:32;;;;;;;0.87;0.87;;;4.50;99.90;;;;;;5034331;28;20307;-57
2021/12/01 03:34:58;;;;;;;0.90;0.90;;;4.50;99.90;;;;;;5027889;28;20214;-55
2021/12/01 03:37:24;;;;;;;1.00;1.00;;;4.50;99.90;;;;;;5034390;28;20326;-52
2021/12/01 03:39:49;;;;;;;1.13;1.13;;;4.50;99.90;;;;;;5082118;23;20237;-52
2021/12/01 03:42:15;;;;;;;1.00;1.00;;;4.50;99.90;;;;;;5078774;28;20184;-51
2021/12/01 03:44:41;;;;;;;1.00;1.00;;;4.50;99.90;;;;;;5089886;28;20178;-54
2021/12/01 03:47:06;;;;;;;1.20;1.20;;;4.50;99.90;;;;;;5094097;28;20191;-49
2021/12/01 03:49:32;;;;;;;1.23;1.13;;;4.50;99.90;;;;;;5068946;28;20194;-47
2021/12/01 03:51:57;;;;;;;0.90;0.90;;;4.50;99.90;;;;;;5055985;28;20240;-50
2021/12/01 03:54:23;;;;;;;0.90;0.90;;;4.50;99.90;;;;;;5073459;28;20224;-51
2021/12/01 03:56:49;;;;;;;1.50;1.40;;;4.50;99.90;;;;;;5072848;28;20795;-45
2021/12/01 03:59:14;;;;;;;1.67;1.57;;;6.10;99.90;;;;;;5073609;28;20191;-49
2021/12/01 04:01:40;;;;;;;2.20;2.10;;;4.50;99.90;;;;;;5073690;28;20195;-50
2021/12/01 04:04:06;;;;;;;2.03;1.90;;;4.50;99.90;;;;;;5073831;28;20167;-50
2021/12/01 04:06:33;;;;;;;2.13;2.00;;;4.50;99.90;;;;;;5073368;28;20194;-44
2021/12/01 04:08:58;;;;;;;1.97;1.87;;;4.50;99.90;;;;;;5073596;28;20189;-48
2021/12/01 04:11:24;;;;;;;1.50;1.40;;;4.50;99.90;;;;;;5073015;28;20189;-45
2021/12/01 04:13:51;;;;;;;1.57;1.47;;;4.50;99.90;;;;;;5073499;28;20178;-47
2021/12/01 04:16:16;;;;;;;2.00;1.90;;;4.50;99.90;;;;;;5071738;28;20178;-44
2021/12/01 04:18:43;;;;;;;1.40;1.30;;;4.50;99.90;;;;;;5073438;28;20198;-45
2021/12/01 04:21:08;;;;;;;1.73;1.63;;;4.50;99.90;;;;;;5072871;28;20194;-50
2021/12/01 04:23:34;;;;;;;1.50;1.40;;;4.40;99.90;;;;;;5072979;28;20181;-45
2021/12/01 04:26:01;;;;;;;1.40;1.30;;;4.40;99.90;;;;;;5073092;28;20170;-48
2021/12/01 04:28:28;;;;;;;1.20;1.20;;;4.50;99.90;;;;;;5073027;28;20633;-47
2021/12/01 04:30:53;;;;;;;1.37;1.27;;;4.40;99.90;;;;;;5073221;28;20170;-44
2021/12/01 04:33:19;;;;;;;1.27;1.20;;;4.40;99.90;;;;;;5073067;28;20197;-45
2021/12/01 04:35:46;;;;;;;1.70;1.60;;;4.50;99.90;;;;;;5072919;28;20208;-49
2021/12/01 04:38:12;;;;;;;2.10;2.00;;;4.40;99.90;;;;;;5072979;28;20178;-47
2021/12/01 04:40:38;;;;;;;2.00;1.90;;;4.40;99.90;;;;;;5072953;28;20214;-44
2021/12/01 04:43:03;;;;;;;1.60;1.50;;;4.50;99.90;;;;;;5072875;28;20518;-47
2021/12/01 04:45:31;;;;;;;2.77;2.57;;;4.50;99.90;;;;;;5072749;28;20202;-48
2021/12/01 04:47:57;;;;;;;2.20;2.10;;;4.40;99.90;;;;;;5072456;28;20169;-49
2021/12/01 04:50:26;;;;;;;2.40;2.20;;;4.40;99.90;;;;;;5072599;28;20248;-51
2021/12/01 04:52:55;;;;;;;1.87;1.77;;;4.50;99.90;;;;;;5072043;28;20163;-46
2021/12/01 04:55:21;;;;;;;2.00;1.90;;;4.50;99.90;;;;;;5072233;28;20215;-44
2021/12/01 04:57:48;;;;;;;2.23;1.80;;;4.50;99.90;;;;;;5072538;28;20219;-45
2021/12/01 05:00:26;;;;;;;1.93;1.83;;;4.50;99.90;;;;;;5071530;28;20244;-44
2021/12/01 05:02:52;;;;;;;1.70;1.60;;;4.50;99.90;;;;;;5072622;28;20181;-49
2021/12/01 05:05:17;;;;;;;1.83;1.73;;;4.50;99.90;;;;;;5072111;28;20170;-45
2021/12/01 05:07:44;;;;;;;1.70;1.60;;;4.50;99.90;;;;;;5054693;28;20174;-45
2021/12/01 05:10:10;;;;;;;2.00;1.90;;;4.60;99.90;;;;;;5071889;28;20252;-44
2021/12/01 05:12:36;;;;;;;1.93;1.83;;;4.50;99.90;;;;;;5072543;28;20190;-48
2021/12/01 05:15:02;;;;;;;1.80;1.70;;;4.50;99.90;;;;;;5071822;28;20269;-47
2021/12/01 05:17:27;;;;;;;1.97;1.87;;;4.60;99.90;;;;;;5072427;28;20174;-45
2021/12/01 05:19:53;;;;;;;1.80;1.70;;;4.60;99.90;;;;;;5071932;28;20763;-54
2021/12/01 05:22:19;;;;;;;2.10;2.00;;;4.60;99.90;;;;;;5072329;28;20253;-49
2021/12/01 05:24:44;;;;;;;1.70;1.60;;;4.60;99.90;;;;;;5071956;28;20170;-45
2021/12/01 05:27:10;;;;;;;1.83;1.73;;;4.60;99.90;;;;;;5071930;28;20171;-44
2021/12/01 05:29:36;;;;;;;1.80;1.70;;;4.60;99.90;;;;;;5071991;28;20229;-51
2021/12/01 05:32:02;;;;;;;1.50;1.40;;;4.60;99.90;;;;;;5071773;28;20286;-47
2021/12/01 05:34:28;;;;;;;1.60;1.50;;;4.70;99.90;;;;;;5072088;28;20170;-44
2021/12/01 05:36:59;;;;;;;1.87;1.77;;;4.70;99.90;;;;;;5071627;28;20166;-44
2021/12/01 05:39:25;;;;;;;1.57;1.47;;;4.60;99.90;;;;;;5071602;28;20212;-49
2021/12/01 05:41:52;;;;;;;2.30;2.10;;;4.70;99.90;;;;;;5071929;28;20692;-50
2021/12/01 05:44:17;;;;;;;2.30;2.03;;;4.70;99.90;;;;;;5071880;28;20585;-48
2021/12/01 05:46:43;;;;;;;2.50;2.30;;;4.70;99.90;;;;;;5053571;28;20182;-50
2021/12/01 05:49:09;;;;;;;2.37;2.17;;;4.70;99.90;;;;;;5071836;28;20633;-47
2021/12/01 05:51:34;;;;;;;2.00;1.80;;;4.70;99.90;;;;;;5071758;28;20225;-48
2021/12/01 05:54:01;;;;;;;2.67;2.27;;;4.70;99.90;;;;;;5071661;28;20202;-47
2021/12/01 05:56:27;;;;;;;2.03;1.83;;;4.80;99.90;;;;;;5071405;28;20198;-46
2021/12/01 05:58:52;;;;;;;1.77;1.67;;;4.80;99.90;;;;;;5071185;28;20676;-47
2021/12/01 06:01:18;;;;;;;2.13;1.93;;;4.80;99.90;;;;;;5071780;28;20178;-50
2021/12/01 06:03:43;;;;;;;2.00;1.90;;;4.80;99.90;;;;;;5071467;28;20174;-45
2021/12/01 06:06:09;;;;;;;1.80;1.70;;;4.80;99.90;;;;;;5071361;28;20171;-47
2021/12/01 06:08:35;;;;;;;2.30;2.10;;;4.80;99.90;;;;;;5053297;28;20174;-49
2021/12/01 06:11:00;;;;;;;2.27;2.07;;;4.90;99.90;;;;;;5071454;28;20206;-53
2021/12/01 06:13:26;;;;;;;2.40;2.20;;;4.80;99.90;;;;;;5071367;28;20177;-48
2021/12/01 06:15:52;;;;;;;3.57;2.90;;;4.90;99.90;;;;;;5071281;28;20179;-51
2021/12/01 06:18:19;;;;;;;2.70;2.50;;;4.90;99.90;;;;;;5071430;28;20170;-47
2021/12/01 06:20:45;;;;;;;3.27;2.97;;;4.90;99.90;;;;;;5071329;28;20228;-48
2021/12/01 06:23:12;;;;;;;2.80;2.60;;;4.90;99.90;;;;;;5071442;28;20178;-53
2021/12/01 06:25:38;;;;;;;2.90;2.50;;;4.90;99.90;;;;;;5070906;28;20177;-50
2021/12/01 06:28:03;;;;;;;2.23;2.00;;;4.90;99.90;;;;;;5071406;28;20193;-52
2021/12/01 06:30:34;;;;;;;2.37;2.17;;;5.20;99.90;;;;;;5071376;28;20206;-47
2021/12/01 06:33:00;;;;;;;2.07;1.97;;;4.90;99.90;;;;;;5071376;28;20627;-53
2021/12/01 06:35:25;;;;;;;1.80;1.70;;;5.00;99.90;;;;;;5071034;28;20228;-51
2021/12/01 06:37:53;;;;;;;1.73;1.63;;;4.90;99.90;;;;;;5071363;28;20186;-50
2021/12/01 06:40:20;;;;;;;1.70;1.60;;;5.00;99.90;;;;;;5071001;28;20207;-52
2021/12/01 06:42:45;;;;;;;1.50;1.40;;;5.00;99.90;;;;;;5071408;28;20217;-48
2021/12/01 06:45:11;;;;;;;1.90;1.80;;;4.90;99.90;;;;;;5071087;28;20202;-47
2021/12/01 06:47:39;;;;;;;1.50;1.40;;;5.00;99.90;;;;;;5071277;28;20182;-50
2021/12/01 06:50:06;;;;;;;1.47;1.37;;;5.00;99.90;;;;;;5070961;28;20203;-48
2021/12/01 06:52:32;;;;;;;1.50;1.40;;;5.00;99.90;;;;;;5071139;28;20170;-44
2021/12/01 06:54:59;;;;;;;1.40;1.30;;;5.00;99.90;;;;;;5079668;28;20633;-44
2021/12/01 06:57:25;;;;;;;1.07;1.07;;;5.00;99.90;;;;;;5074016;28;20174;-45
2021/12/01 06:59:51;;;;;;;0.90;0.90;;;5.10;99.90;;;;;;5070929;28;20290;-45
2021/12/01 07:02:17;;;;;;;1.20;1.20;;;5.00;99.90;;;;;;5070780;28;20249;-44
2021/12/01 07:04:44;;;;;;;1.53;1.40;;;5.10;99.90;;;;;;5070216;28;20174;-44
2021/12/01 07:07:10;;;;;;;1.63;1.53;;;5.10;99.90;;;;;;5070747;28;20202;-45
2021/12/01 07:09:36;;;;;;;1.70;1.60;;;5.10;99.90;;;;;;5070870;28;20198;-46
2021/12/01 07:12:01;;;;;;;2.00;1.90;;;5.10;99.90;;;;;;5069304;28;20634;-49
2021/12/01 07:14:27;;;;;;;2.17;2.07;;;5.10;99.90;;;;;;5061927;28;20175;-49
2021/12/01 07:16:54;;;;;;;2.00;1.90;;;5.10;99.90;;;;;;5070456;28;20216;-47
2021/12/01 07:19:20;;;;;;;2.33;2.00;;;5.10;99.90;;;;;;5074140;28;20218;-46
2021/12/01 07:21:45;;;;;;;2.03;1.87;;;5.10;99.90;;;;;;5074468;28;20198;-52
2021/12/01 07:24:11;;;;;;;1.80;1.70;;;5.10;99.90;;;;;;5074185;28;20224;-49
2021/12/01 07:26:37;;;;;;;2.00;1.90;;;5.10;99.90;;;;;;5074860;28;20233;-47
2021/12/01 07:29:03;;;;;;;2.30;2.17;;;5.10;99.90;;;;;;5074041;28;20250;-47
2021/12/01 07:31:28;;;;;;;2.00;1.90;;;6.60;99.90;;;;;;5073697;28;20206;-45
2021/12/01 07:33:54;;;;;;;2.00;1.90;;;5.10;99.90;;;;;;5074024;28;20166;-46
2021/12/01 07:36:19;;;;;;;1.50;1.40;;;5.10;99.90;;;;;;5073439;28;20598;-47
2021/12/01 07:38:45;;;;;;;2.00;1.80;;;5.10;99.90;;;;;;5056008;28;20249;-45
2021/12/01 07:41:11;;;;;;;1.33;1.23;;;5.20;99.90;;;;;;5073581;28;20620;-50
2021/12/01 07:43:36;;;;;;;1.67;1.57;;;5.20;99.90;;;;;;5073753;28;20197;-49
2021/12/01 07:46:02;;;;;;;2.00;1.90;;;5.20;99.90;;;;;;5073717;28;20296;-44
2021/12/01 07:48:30;;;;;;;1.63;1.53;;;5.20;99.90;;;;;;5073447;28;20178;-48
2021/12/01 07:50:55;;;;;;;1.73;1.53;;;5.20;99.90;;;;;;5073978;28;20194;-46
2021/12/01 07:53:22;;;;;;;1.73;1.63;;;5.30;99.90;;;;;;5073556;28;20170;-48
2021/12/01 07:55:48;;;;;;;1.80;1.40;;;5.30;99.90;;;;;;5073428;28;20174;-45
2021/12/01 07:58:14;;;;;;;2.57;2.37;;;5.30;99.90;;;;;;5073491;28;20181;-46
2021/12/01 08:00:40;;;;;;;3.83;2.80;;;5.30;99.90;;;;;;5073441;28;20205;-47
2021/12/01 08:03:05;;;;;;;2.57;2.37;;;5.30;99.90;;;;;;5073833;28;20257;-51
2021/12/01 08:05:32;;;;;;;2.03;1.90;;;5.30;99.90;;;;;;5072560;28;20775;-45
2021/12/01 08:07:57;;;;;;;1.70;1.60;;;5.30;99.90;;;;;;5073683;28;20253;-49
2021/12/01 08:10:23;;;;;;;2.47;2.27;;;5.40;99.90;;;;;;5073554;28;20339;-46
2021/12/01 08:12:49;;;;;;;2.33;1.90;;;5.40;99.90;;;;;;5071181;28;20407;-49
2021/12/01 08:15:14;;;;;;;1.50;1.40;;;5.40;99.90;;;;;;5073305;28;20171;-50
2021/12/01 08:17:40;;;;;;;1.80;1.70;;;5.40;99.90;;;;;;5073092;28;20173;-47
2021/12/01 08:20:06;;;;;;;2.37;2.17;;;5.40;99.90;;;;;;5073430;28;20925;-45
2021/12/01 08:22:32;;;;;;;2.47;2.27;;;5.40;99.90;;;;;;5073050;28;20167;-46
2021/12/01 08:24:58;;;;;;;2.23;2.03;;;5.50;99.90;;;;;;5072477;28;20189;-47
2021/12/01 08:27:24;;;;;;;1.87;1.77;;;5.40;99.90;;;;;;5072600;28;20162;-49
2021/12/01 08:29:50;;;;;;;2.70;2.50;;;5.40;99.90;;;;;;5054060;28;20195;-47
2021/12/01 08:32:16;;;;;;;2.37;2.17;;;5.40;99.90;;;;;;5073039;28;20255;-48
2021/12/01 08:34:43;;;;;;;2.37;2.17;;;5.50;99.90;;;;;;5072518;28;20231;-46
2021/12/01 08:37:10;;;;;;;2.23;1.90;;;5.50;99.90;;;;;;5055081;28;20182;-45
2021/12/01 08:39:36;;;;;;;2.03;1.90;;;5.50;99.90;;;;;;5072487;28;20206;-48
2021/12/01 08:42:02;;;;;;;2.40;2.20;;;5.50;99.90;;;;;;5054893;28;20177;-45
2021/12/01 08:44:27;;;;;;;1.80;1.70;;;5.60;99.90;;;;;;5072926;28;20265;-50
2021/12/01 08:46:54;;;;;;;2.27;2.07;;;5.50;99.90;;;;;;5070820;28;20174;-48
2021/12/01 08:49:19;;;;;;;2.20;2.00;;;5.60;99.90;;;;;;5071477;28;20191;-51
2021/12/01 08:51:45;;;;;;;2.50;2.20;;;5.60;99.90;;;;;;5072526;28;20194;-48
2021/12/01 08:54:13;;;;;;;2.67;2.10;;;5.70;99.90;;;;;;5072562;28;20284;-52
2021/12/01 08:56:41;;;;;;;2.63;2.00;;;5.70;99.90;;;;;;5072469;28;20166;-51
2021/12/01 08:59:07;;;;;;;1.87;1.77;;;5.80;99.90;;;;;;5072349;28;20197;-44
2021/12/01 09:01:32;;;;;;;2.00;1.90;;;5.80;99.90;;;;;;5072747;28;20241;-46
2021/12/01 09:03:58;;;;;;;1.87;1.77;;;5.80;99.90;;;;;;5072464;28;20170;-46
2021/12/01 09:06:23;;;;;;;1.93;1.83;;;5.80;99.90;;;;;;5072289;28;20178;-53
2021/12/01 09:08:49;;;;;;;1.93;1.80;;;5.80;99.90;;;;;;5072391;28;20569;-47
2021/12/01 09:11:15;;;;;;;1.90;1.80;;;5.90;99.90;;;;;;5072209;28;20198;-52
2021/12/01 09:13:40;;;;;;;1.70;1.60;;;5.90;99.90;;;;;;5066651;28;20576;-51
2021/12/01 09:16:06;;;;;;;2.63;2.00;;;5.90;99.90;;;;;;5062315;28;20182;-50
2021/12/01 09:18:33;;;;;;;2.00;1.80;;;5.90;99.90;;;;;;5062866;28;20209;-53
2021/12/01 09:21:01;;;;;;;2.40;2.20;;;5.90;99.90;;;;;;5071347;28;20174;-50
2021/12/01 09:23:26;;;;;;;2.37;2.17;;;5.90;99.90;;;;;;5071469;28;20645;-44
2021/12/01 09:25:52;;;;;;;2.00;1.90;;;6.00;99.90;;;;;;5071225;28;20174;-48
2021/12/01 09:28:22;;;;;;;2.10;1.90;;;6.00;99.90;;;;;;5070899;28;20162;-50
2021/12/01 09:30:48;;;;;;;2.07;1.90;;;6.00;99.90;;;;;;5071863;28;20712;-47
2021/12/01 09:33:14;;;;;;;1.50;1.40;;;6.00;99.90;;;;;;5071388;28;20245;-49
2021/12/01 09:35:41;;;;;;;1.70;1.60;;;6.10;99.90;;;;;;5070609;28;20163;-47
2021/12/01 09:38:07;;;;;;;1.73;1.63;;;6.10;99.90;;;;;;5071330;28;20179;-46
2021/12/01 09:40:32;;;;;;;1.93;1.83;;;6.20;99.90;;;;;;5071791;28;20210;-48
2021/12/01 09:42:58;;;;;;;1.60;1.50;;;6.20;99.90;;;;;;5071513;28;20632;-50
2021/12/01 09:45:25;;;;;;;1.50;1.40;;;6.30;99.90;;;;;;5071700;28;20215;-45
2021/12/01 09:47:51;;;;;;;2.47;1.73;;;6.30;99.90;;;;;;5071983;28;20224;-45
2021/12/01 09:50:18;;;;;;;1.77;1.67;;;6.40;99.90;;;;;;5071525;28;20204;-45
2021/12/01 09:52:44;;;;;;;1.73;1.63;;;6.50;99.90;;;;;;5071969;28;20175;-45
2021/12/01 09:55:14;;;;;;;1.70;1.60;;;6.70;99.90;;;;;;5071659;28;20175;-46
2021/12/01 09:57:58;;;;;;;1.50;1.40;;;6.90;99.90;;;;;;5071765;28;20227;-46
2021/12/01 10:00:24;;;;;;;4.40;3.47;;;7.10;99.90;;;;;;5070954;28;20226;-53
2021/12/01 10:02:50;;;;;;;3.73;3.10;;;7.90;99.90;;;;;;5071544;28;20217;-47
2021/12/01 10:06:04;;;;;;;3.07;2.63;;;9.00;99.90;;;;;;5071549;28;20166;-50
2021/12/01 10:08:49;;;;;;;4.27;2.30;;;10.10;99.90;;;;;;5071406;28;20162;-47
2021/12/01 10:11:22;;;;;;;2.37;2.13;;;11.50;99.90;;;;;;5071652;28;20209;-48
2021/12/01 10:13:54;;;;;;;2.27;2.07;;;12.50;99.90;;;;;;5071445;28;20171;-51
2021/12/01 10:16:21;;;;;;;2.27;2.13;;;12.70;99.90;;;;;;5071265;28;20239;-50
2021/12/01 10:18:52;;;;;;;2.47;2.27;;;12.50;99.90;;;;;;5071434;28;20195;-46
2021/12/01 10:21:43;;;;;;;1.90;1.70;;;12.20;99.90;;;;;;5071841;28;20179;-51
2021/12/01 10:24:12;;;;;;;2.00;1.90;;;11.80;99.90;;;;;;5071376;28;20254;-45
2021/12/01 10:26:48;;;;;;;1.83;1.73;;;11.40;99.90;;;;;;5071373;28;20323;-48
2021/12/01 10:29:20;;;;;;;2.13;1.93;;;11.00;99.90;;;;;;5071260;28;20193;-49
2021/12/01 10:31:55;;;;;;;1.50;1.40;;;10.80;99.90;;;;;;5071511;28;20202;-47
2021/12/01 10:34:30;;;;;;;1.50;1.40;;;10.60;99.90;;;;;;5071297;28;20603;-47
2021/12/01 10:37:14;;;;;;;1.67;1.50;;;10.50;99.90;;;;;;5071226;28;20154;-52
2021/12/01 10:39:48;;;;;;;2.53;1.63;;;10.60;99.90;;;;;;5071343;28;20680;-49
2021/12/01 10:42:16;;;;;;;1.90;1.80;;;10.70;99.90;;;;;;5071406;28;20664;-51
2021/12/01 10:45:16;;;;;;;1.50;1.40;;;10.80;99.90;;;;;;5070898;28;20257;-48
2021/12/01 10:47:43;;;;;;;1.60;1.50;;;10.90;99.90;;;;;;4970190;28;20198;-51
2021/12/01 10:50:12;;;;;;;1.87;1.70;;;11.20;99.90;;;;;;4970061;28;20305;-48
2021/12/01 10:52:49;;;;;;;1.30;1.20;;;12.00;99.90;;;;;;4972858;28;20180;-47
2021/12/01 10:55:17;;;;;;;1.60;1.50;;;13.50;99.90;;;;;;4973604;28;20242;-52
2021/12/01 10:57:49;;;;;;;1.60;1.27;;;14.90;99.90;;;;;;4973872;28;20187;-48
2021/12/01 11:00:22;;;;;;;1.40;1.30;;;15.80;99.90;;;;;;4973326;28;20677;-48
2021/12/01 11:02:49;;;;;;;1.30;1.10;;;15.90;99.90;;;;;;4974030;28;20608;-46
2021/12/01 11:05:36;;;;;;;1.27;1.20;;;15.80;99.90;;;;;;4973635;28;20170;-47
2021/12/01 11:08:20;;;;;;;1.23;1.20;;;15.70;99.90;;;;;;4973581;28;20162;-52
2021/12/01 11:10:51;;;;;;;1.40;1.30;;;15.30;99.90;;;;;;4973417;28;20252;-46
2021/12/01 11:13:18;;;;;;;1.80;1.53;;;14.80;99.90;;;;;;4973796;28;20174;-46
2021/12/01 11:15:55;;;;;;;1.60;1.50;;;14.30;99.90;;;;;;4973496;28;20241;-46
2021/12/01 11:18:26;;;;;;;1.23;1.13;;;13.80;99.90;;;;;;4973666;28;20221;-48
2021/12/01 11:20:53;;;;;;;2.07;1.77;;;13.30;99.90;;;;;;4973802;28;20624;-49
2021/12/01 11:23:36;;;;;;;2.00;1.60;;;12.90;99.90;;;;;;5026739;28;20179;-49
2021/12/01 11:26:08;;;;;;;1.30;1.20;;;12.60;99.90;;;;;;5074399;28;20212;-47
2021/12/01 11:28:55;;;;;;;1.50;1.40;;;12.30;99.90;;;;;;5074574;28;20174;-48
2021/12/01 11:31:22;;;;;;;2.07;1.47;;;12.10;99.90;;;;;;5074396;28;20251;-52
2021/12/01 11:33:55;;;;;;;1.70;1.53;;;11.90;99.90;;;;;;5074632;28;20534;-46
2021/12/01 11:36:33;;;;;;;3.30;1.60;;;11.60;99.90;;;;;;5074144;28;20580;-45
2021/12/01 11:39:03;;;;;;;1.60;1.50;;;11.40;99.90;;;;;;5074127;28;20190;-46
2021/12/01 11:41:29;;;;;;;1.50;1.40;;;11.20;99.90;;;;;;5074284;28;20281;-47
2021/12/01 11:43:56;;;;;;;1.43;1.33;;;11.00;99.90;;;;;;5074114;28;20246;-45
2021/12/01 11:46:22;;;;;;;1.63;1.40;;;10.90;99.90;;;;;;5074036;28;20571;-53
2021/12/01 11:48:50;;;;;;;1.53;1.43;;;10.70;99.90;;;;;;5073806;28;20195;-45
2021/12/01 11:51:38;;;;;;;1.70;1.60;;;10.60;99.90;;;;;;5074114;28;20198;-47
2021/12/01 11:54:06;;;;;;;1.90;1.70;;;10.50;99.90;;;;;;5073979;28;20233;-46
2021/12/01 11:56:34;;;;;;;1.60;1.50;;;10.50;99.90;;;;;;5073695;28;20245;-46
2021/12/01 11:59:04;;;;;;;1.80;1.70;;;10.40;99.90;;;;;;5073701;28;20235;-50
2021/12/01 12:01:30;;;;;;;1.80;1.70;;;10.60;99.90;;;;;;5074064;28;20174;-46
2021/12/01 12:04:01;;;;;;;1.97;1.60;;;11.00;99.90;;;;;;5073606;28;20171;-48
2021/12/01 12:06:29;;;;;;;2.07;1.70;;;11.60;99.90;;;;;;5073537;28;20173;-49
2021/12/01 12:08:57;;;;;;;2.23;1.90;;;12.10;99.90;;;;;;5073612;28;20218;-46
2021/12/01 12:11:39;;;;;;;2.40;2.20;;;12.40;99.90;;;;;;5073565;28;20196;-46
2021/12/01 12:14:10;;;;;;;2.20;2.00;;;12.70;99.90;;;;;;5073954;28;20524;-45
2021/12/01 12:16:37;;;;;;;2.50;2.10;;;12.90;99.90;;;;;;5073173;28;20252;-46
2021/12/01 12:19:03;;;;;;;2.40;2.20;;;12.90;99.90;;;;;;5073501;28;20196;-50
2021/12/01 12:21:47;;;;;;;2.97;2.30;;;12.90;99.90;;;;;;5073390;28;20186;-46
2021/12/01 12:24:20;;;;;;;2.40;2.20;;;12.70;99.90;;;;;;5073643;28;20646;-51
2021/12/01 12:26:49;;;;;;;4.33;2.43;;;12.50;99.90;;;;;;5073120;28;20179;-46
2021/12/01 12:29:17;;;;;;;3.77;2.07;;;12.20;99.90;;;;;;5073224;28;20191;-45
2021/12/01 12:31:45;;;;;;;3.27;2.37;;;11.90;99.90;;;;;;5073124;28;20194;-48
2021/12/01 12:34:19;;;;;;;2.33;1.80;;;11.70;99.90;;;;;;5073158;28;20158;-51
2021/12/01 12:36:48;;;;;;;2.00;1.80;;;11.40;99.90;;;;;;5054835;28;20198;-45
2021/12/01 12:39:18;;;;;;;3.73;2.17;;;11.20;99.90;;;;;;5072906;28;20244;-48
2021/12/01 12:42:05;;;;;;;2.07;1.90;;;11.00;99.90;;;;;;5072977;28;20170;-46
2021/12/01 12:44:39;;;;;;;2.10;1.90;;;10.80;99.90;;;;;;5073235;28;20621;-49
2021/12/01 12:47:09;;;;;;;2.20;2.00;;;10.60;99.90;;;;;;5071566;28;20181;-46
2021/12/01 12:49:42;;;;;;;2.10;1.90;;;10.40;99.90;;;;;;5072830;28;20199;-52
2021/12/01 12:52:26;;;;;;;2.23;1.80;;;10.20;99.90;;;;;;5072897;28;20197;-50
2021/12/01 12:55:05;;;;;;;1.70;1.60;;;10.00;99.90;;;;;;5072455;28;20567;-45
2021/12/01 12:57:51;;;;;;;2.37;1.57;;;9.90;99.90;;;;;;5072930;28;20158;-45
2021/12/01 13:00:22;;;;;;;2.20;1.80;;;9.70;99.90;;;;;;5072674;28;20263;-48
2021/12/01 13:02:48;;;;;;;2.50;1.83;;;9.60;99.90;;;;;;5054745;28;20170;-46
2021/12/01 13:05:28;;;;;;;2.30;1.90;;;9.50;99.90;;;;;;5072554;28;20649;-46
2021/12/01 13:07:56;;;;;;;3.37;2.13;;;9.40;99.90;;;;;;5072572;28;20238;-48